Portland, OR (97203)

5:56 AM PST on December 29, 2014 (GMT -0800)
Portsmouth | Change Station
CLOSE
Current Station
Personal Weather Station
Location: Portland, OR
Elevation: 98 ft
Nearby Weather Stations
Active Advisory: Wind Advisory, Special Statement

Elev 98 ft 45.59 °N, 122.71 °W | Updated 10 minutes ago

Overcast
Overcast
39.2 °F
Feels Like 39 °F
N
0.0
Wind Variable Wind from North
Gusts 0.0 mph

Today
High -- | Low -- °F
--% Chance of Precip.
Yesterday
High -- | Low -- °F
Precip. -- in
7:51 AM 4:35 PM
First Quarter, 59% visible
Pressure 30.19 in
Visibility 10.0 miles
Clouds Scattered Clouds 600 ft
Overcast 1300 ft
Windchill 39 °F
Dew Point 37 °F
Humidity 93%
Rainfall 0.13 in
Snow Depth Not available.
UV 0 out of 12
Pollen .50 out of 12
Air Quality Not available.
Flu Activity Not available.
SPECI KVUO 291326Z AUTO 00000KT 10SM SCT006 OVC013 04/03 A3019 RMK AO2 T00440028

More Conditions Fewer Conditions

Pressure 30.19 in
Visibility 10.0 miles
Clouds Scattered Clouds 600 ft
Overcast 1300 ft
Windchill 39 °F
Dew Point 37 °F
Humidity 93%
Rainfall 0.13 in
Snow Depth Not available.
UV 0 out of 12
Pollen .50 out of 12
Air Quality Not available.
Flu Activity Not available.
SPECI KVUO 291326Z AUTO 00000KT 10SM SCT006 OVC013 04/03 A3019 RMK AO2 T00440028

More Conditions Fewer Conditions

10-Day Weather Forecast

Almanac

Astronomy

Dec. 29, 2014 Rise Set
Actual Time
Civil Twilight
Nautical Twilight
Astronomical Twilight
Moon
Length of Visible Light
Length of Day
Tomorrow will be .
, % of the Moon is Illuminated

Today's Extremes

State Highs State Lows

Community

WunderPhotos

Upload Photos

1,781,586 photos uploaded!

WunderBlogs® & News

Nearby

Air Quality

  Air Quality AQ Index Pollutant
Not available.

Snow Depth

Station Depth Elevation

Earthquake Activity

City Distance Mag. Time & Date
Minimum magnitude displayed is 2.5.

Coastal Water Temperatures

Place Temperature

Nearby Weather Stations